📊 Raw Sensor Data
Showing records 47051 to 47075 of 85,080 total
| ID | Distance (ft) | Battery V | Battery A | Int Temp (°F) | Int Humid (%) | Ext Temp (°F) | Solar V | RSSI | SNR | Time Stamp |
|---|---|---|---|---|---|---|---|---|---|---|
| 38042 | 15.2 | 3.84 | -5 | 52 | 41 | 53 | 0.00 | -91 | 5 | 04/17/2025 03:30 AM |
| 38041 | 15.3 | 3.84 | -5 | 52 | 41 | 53 | 0.00 | -88 | 9 | 04/17/2025 03:15 AM |
| 38040 | 15.3 | 3.79 | -5 | 52 | 41 | 53 | 0.00 | -87 | 7 | 04/17/2025 03:00 AM |
| 38039 | 15.2 | 3.79 | -5 | 52 | 41 | 53 | 0.00 | -89 | 7 | 04/17/2025 02:45 AM |
| 38038 | 15.3 | 3.84 | -5 | 52 | 41 | 53 | 0.00 | -87 | 8 | 04/17/2025 02:30 AM |
| 38037 | 15.3 | 3.79 | -5 | 52 | 41 | 53 | 0.00 | -94 | 4 | 04/17/2025 02:15 AM |
| 38036 | 15.3 | 3.79 | -5 | 52 | 41 | 53 | 0.00 | -90 | 7 | 04/17/2025 02:00 AM |
| 38035 | 15.2 | 3.79 | -5 | 53 | 41 | 53 | 0.00 | -83 | 8 | 04/17/2025 01:45 AM |
| 38034 | 15.3 | 3.85 | -5 | 52 | 41 | 53 | 0.00 | -93 | 6 | 04/17/2025 01:30 AM |
| 38033 | 15.3 | 3.80 | -34 | 53 | 41 | 53 | 0.00 | -90 | 7 | 04/17/2025 01:15 AM |
| 38032 | 15.2 | 3.80 | -5 | 53 | 41 | 53 | 0.10 | -87 | 8 | 04/17/2025 01:00 AM |
| 38031 | 15.2 | 3.80 | -5 | 53 | 41 | 53 | 0.00 | -86 | 8 | 04/17/2025 12:45 AM |
| 38030 | 15.3 | 3.80 | -5 | 53 | 41 | 53 | 0.00 | -85 | 7 | 04/17/2025 12:30 AM |
| 38029 | 15.3 | 3.85 | -5 | 53 | 41 | 54 | 0.00 | -86 | 7 | 04/17/2025 12:15 AM |
| 38028 | -- | 3.85 | -5 | 52 | 41 | 53 | 0.00 | -92 | 7 | 04/17/2025 12:01 AM |
| 38027 | -- | 3.80 | -5 | 52 | 41 | 53 | 0.10 | -85 | 8 | 04/16/2025 11:46 PM |
| 38026 | -- | 3.80 | -5 | 51 | 42 | 53 | 0.00 | -88 | 7 | 04/16/2025 11:30 PM |
| 38025 | 15.3 | 3.80 | -5 | 51 | 41 | 52 | 0.00 | -84 | 8 | 04/16/2025 11:15 PM |
| 38024 | 15.2 | 3.85 | -5 | 51 | 42 | 52 | 0.00 | -87 | 5 | 04/16/2025 11:00 PM |
| 38023 | 15.2 | 3.80 | -5 | 51 | 42 | 53 | 0.10 | -91 | 4 | 04/16/2025 10:45 PM |
| 38022 | 15.2 | 3.85 | -5 | 51 | 42 | 53 | 0.00 | -85 | 8 | 04/16/2025 10:30 PM |
| 38021 | -- | 3.80 | -35 | 51 | 42 | 53 | 0.00 | -85 | 8 | 04/16/2025 10:15 PM |
| 38020 | 15.3 | 3.80 | -5 | 51 | 42 | 53 | 0.00 | -98 | 4 | 04/16/2025 10:00 PM |
| 38019 | 15.3 | 3.80 | -5 | 51 | 42 | 53 | 0.00 | -91 | 7 | 04/16/2025 09:45 PM |
| 38018 | 15.3 | 3.86 | -5 | 51 | 43 | 53 | 0.00 | -87 | 7 | 04/16/2025 09:30 PM |